sensor_id;sensor_type;location;lat;lon;timestamp;P1;durP1;ratioP1;P2;durP2;ratioP2
19032;SDS011;9649;51.042;13.804;2022-12-18T00:04:15;75.23;;;27.23;;
19032;SDS011;9649;51.042;13.804;2022-12-18T00:09:22;71.73;;;26.33;;
19032;SDS011;9649;51.042;13.804;2022-12-18T00:14:33;65.30;;;25.60;;
19032;SDS011;9649;51.042;13.804;2022-12-18T00:19:35;73.33;;;24.67;;
19032;SDS011;9649;51.042;13.804;2022-12-18T00:24:38;63.40;;;23.47;;
19032;SDS011;9649;51.042;13.804;2022-12-18T00:29:42;60.73;;;22.33;;
19032;SDS011;9649;51.042;13.804;2022-12-18T00:34:45;60.70;;;22.87;;
19032;SDS011;9649;51.042;13.804;2022-12-18T00:39:48;59.50;;;23.53;;
19032;SDS011;9649;51.042;13.804;2022-12-18T00:44:52;62.73;;;23.23;;
19032;SDS011;9649;51.042;13.804;2022-12-18T00:49:55;58.50;;;22.47;;
19032;SDS011;9649;51.042;13.804;2022-12-18T00:54:58;60.33;;;21.20;;
19032;SDS011;9649;51.042;13.804;2022-12-18T01:00:09;54.27;;;20.60;;
19032;SDS011;9649;51.042;13.804;2022-12-18T01:05:14;59.97;;;21.90;;
19032;SDS011;9649;51.042;13.804;2022-12-18T01:10:17;66.23;;;21.23;;
19032;SDS011;9649;51.042;13.804;2022-12-18T01:15:21;58.00;;;20.20;;
19032;SDS011;9649;51.042;13.804;2022-12-18T01:20:24;54.50;;;19.07;;
19032;SDS011;9649;51.042;13.804;2022-12-18T01:25:27;47.33;;;16.90;;
19032;SDS011;9649;51.042;13.804;2022-12-18T01:30:31;44.50;;;16.63;;
19032;SDS011;9649;51.042;13.804;2022-12-18T01:35:39;36.27;;;15.53;;
19032;SDS011;9649;51.042;13.804;2022-12-18T01:40:43;39.63;;;14.73;;
19032;SDS011;9649;51.042;13.804;2022-12-18T01:45:47;37.07;;;13.90;;
19032;SDS011;9649;51.042;13.804;2022-12-18T01:50:50;40.77;;;14.63;;
19032;SDS011;9649;51.042;13.804;2022-12-18T01:55:53;40.30;;;13.33;;
19032;SDS011;9649;51.042;13.804;2022-12-18T02:00:59;38.27;;;13.20;;
19032;SDS011;9649;51.042;13.804;2022-12-18T02:06:05;32.70;;;13.37;;
19032;SDS011;9649;51.042;13.804;2022-12-18T02:11:13;35.50;;;12.97;;
19032;SDS011;9649;51.042;13.804;2022-12-18T02:16:23;29.57;;;12.57;;
19032;SDS011;9649;51.042;13.804;2022-12-18T02:21:32;34.10;;;12.00;;
19032;SDS011;9649;51.042;13.804;2022-12-18T02:26:48;33.13;;;12.30;;
19032;SDS011;9649;51.042;13.804;2022-12-18T02:31:53;31.73;;;12.23;;
19032;SDS011;9649;51.042;13.804;2022-12-18T02:37:00;29.93;;;10.80;;
19032;SDS011;9649;51.042;13.804;2022-12-18T02:42:08;30.27;;;10.53;;
19032;SDS011;9649;51.042;13.804;2022-12-18T02:47:13;26.93;;;10.00;;
19032;SDS011;9649;51.042;13.804;2022-12-18T02:52:22;28.90;;;10.53;;
19032;SDS011;9649;51.042;13.804;2022-12-18T02:57:34;29.33;;;10.03;;
19032;SDS011;9649;51.042;13.804;2022-12-18T03:02:44;23.60;;;9.73;;
19032;SDS011;9649;51.042;13.804;2022-12-18T03:07:51;24.70;;;8.73;;
19032;SDS011;9649;51.042;13.804;2022-12-18T03:13:02;24.63;;;9.07;;
19032;SDS011;9649;51.042;13.804;2022-12-18T03:18:07;21.40;;;8.37;;
19032;SDS011;9649;51.042;13.804;2022-12-18T03:23:15;21.53;;;8.27;;
19032;SDS011;9649;51.042;13.804;2022-12-18T03:28:27;22.93;;;8.90;;
19032;SDS011;9649;51.042;13.804;2022-12-18T03:33:36;21.57;;;8.37;;
19032;SDS011;9649;51.042;13.804;2022-12-18T03:38:41;20.20;;;8.90;;
19032;SDS011;9649;51.042;13.804;2022-12-18T03:43:48;21.73;;;8.20;;
19032;SDS011;9649;51.042;13.804;2022-12-18T03:48:55;23.47;;;8.20;;
19032;SDS011;9649;51.042;13.804;2022-12-18T03:54:03;19.20;;;7.93;;
19032;SDS011;9649;51.042;13.804;2022-12-18T03:59:10;24.60;;;8.87;;
19032;SDS011;9649;51.042;13.804;2022-12-18T04:04:15;24.57;;;9.07;;
19032;SDS011;9649;51.042;13.804;2022-12-18T04:09:20;25.67;;;9.97;;
19032;SDS011;9649;51.042;13.804;2022-12-18T04:14:25;22.80;;;8.60;;
19032;SDS011;9649;51.042;13.804;2022-12-18T04:19:28;25.80;;;9.10;;
19032;SDS011;9649;51.042;13.804;2022-12-18T04:24:30;23.53;;;9.13;;
19032;SDS011;9649;51.042;13.804;2022-12-18T04:29:35;21.47;;;8.60;;
19032;SDS011;9649;51.042;13.804;2022-12-18T04:34:37;22.60;;;9.23;;
19032;SDS011;9649;51.042;13.804;2022-12-18T04:39:40;23.67;;;8.60;;
19032;SDS011;9649;51.042;13.804;2022-12-18T04:44:44;25.80;;;8.33;;
19032;SDS011;9649;51.042;13.804;2022-12-18T04:49:47;22.70;;;8.47;;
19032;SDS011;9649;51.042;13.804;2022-12-18T04:54:50;21.90;;;7.70;;
19032;SDS011;9649;51.042;13.804;2022-12-18T04:59:54;23.27;;;8.17;;
19032;SDS011;9649;51.042;13.804;2022-12-18T05:04:57;17.90;;;7.03;;
19032;SDS011;9649;51.042;13.804;2022-12-18T05:09:59;16.83;;;6.93;;
19032;SDS011;9649;51.042;13.804;2022-12-18T05:15:04;21.17;;;6.90;;
19032;SDS011;9649;51.042;13.804;2022-12-18T05:20:08;20.87;;;6.03;;
19032;SDS011;9649;51.042;13.804;2022-12-18T05:25:11;17.23;;;6.87;;
19032;SDS011;9649;51.042;13.804;2022-12-18T05:30:16;17.47;;;6.93;;
19032;SDS011;9649;51.042;13.804;2022-12-18T05:35:19;20.20;;;7.03;;
19032;SDS011;9649;51.042;13.804;2022-12-18T05:40:22;18.13;;;6.80;;
19032;SDS011;9649;51.042;13.804;2022-12-18T05:45:26;15.13;;;6.77;;
19032;SDS011;9649;51.042;13.804;2022-12-18T05:50:29;23.57;;;7.90;;
19032;SDS011;9649;51.042;13.804;2022-12-18T05:55:32;14.27;;;6.27;;
19032;SDS011;9649;51.042;13.804;2022-12-18T06:00:37;17.03;;;6.43;;
19032;SDS011;9649;51.042;13.804;2022-12-18T06:05:42;18.43;;;7.30;;
19032;SDS011;9649;51.042;13.804;2022-12-18T06:10:49;19.87;;;7.07;;
19032;SDS011;9649;51.042;13.804;2022-12-18T06:15:55;22.40;;;8.27;;
19032;SDS011;9649;51.042;13.804;2022-12-18T06:20:58;17.53;;;7.13;;
19032;SDS011;9649;51.042;13.804;2022-12-18T06:26:03;21.07;;;8.20;;
19032;SDS011;9649;51.042;13.804;2022-12-18T06:31:09;20.80;;;8.53;;
19032;SDS011;9649;51.042;13.804;2022-12-18T06:36:12;22.00;;;7.60;;
19032;SDS011;9649;51.042;13.804;2022-12-18T06:41:16;21.17;;;7.70;;
19032;SDS011;9649;51.042;13.804;2022-12-18T06:46:22;20.90;;;7.97;;
19032;SDS011;9649;51.042;13.804;2022-12-18T06:51:25;19.40;;;8.03;;
19032;SDS011;9649;51.042;13.804;2022-12-18T06:56:28;22.30;;;8.90;;
19032;SDS011;9649;51.042;13.804;2022-12-18T07:01:32;24.47;;;8.57;;
19032;SDS011;9649;51.042;13.804;2022-12-18T07:06:35;22.00;;;8.60;;
19032;SDS011;9649;51.042;13.804;2022-12-18T07:11:38;25.10;;;8.60;;
19032;SDS011;9649;51.042;13.804;2022-12-18T07:16:42;23.00;;;8.27;;
19032;SDS011;9649;51.042;13.804;2022-12-18T07:21:45;29.00;;;9.13;;
19032;SDS011;9649;51.042;13.804;2022-12-18T07:26:48;27.47;;;10.10;;
19032;SDS011;9649;51.042;13.804;2022-12-18T07:31:52;27.20;;;9.90;;
19032;SDS011;9649;51.042;13.804;2022-12-18T07:36:55;27.20;;;10.30;;
19032;SDS011;9649;51.042;13.804;2022-12-18T07:41:58;32.00;;;11.27;;
19032;SDS011;9649;51.042;13.804;2022-12-18T07:47:19;26.10;;;11.30;;
19032;SDS011;9649;51.042;13.804;2022-12-18T07:52:22;26.60;;;10.83;;
19032;SDS011;9649;51.042;13.804;2022-12-18T07:57:26;24.03;;;9.77;;
19032;SDS011;9649;51.042;13.804;2022-12-18T08:02:50;24.80;;;10.37;;
19032;SDS011;9649;51.042;13.804;2022-12-18T08:07:53;28.47;;;11.27;;
19032;SDS011;9649;51.042;13.804;2022-12-18T08:12:57;29.40;;;11.40;;
19032;SDS011;9649;51.042;13.804;2022-12-18T08:18:06;25.07;;;10.23;;
19032;SDS011;9649;51.042;13.804;2022-12-18T08:23:14;26.23;;;10.67;;
19032;SDS011;9649;51.042;13.804;2022-12-18T08:28:17;26.13;;;11.00;;
19032;SDS011;9649;51.042;13.804;2022-12-18T08:33:21;23.93;;;10.47;;
19032;SDS011;9649;51.042;13.804;2022-12-18T08:38:24;23.63;;;10.90;;
19032;SDS011;9649;51.042;13.804;2022-12-18T08:43:27;22.93;;;10.87;;
19032;SDS011;9649;51.042;13.804;2022-12-18T08:48:49;23.70;;;11.47;;
19032;SDS011;9649;51.042;13.804;2022-12-18T08:53:53;26.17;;;13.43;;
19032;SDS011;9649;51.042;13.804;2022-12-18T08:58:56;30.43;;;15.70;;
19032;SDS011;9649;51.042;13.804;2022-12-18T09:04:01;26.50;;;13.23;;
19032;SDS011;9649;51.042;13.804;2022-12-18T09:09:04;25.87;;;13.57;;
19032;SDS011;9649;51.042;13.804;2022-12-18T09:14:08;29.50;;;13.57;;
19032;SDS011;9649;51.042;13.804;2022-12-18T09:19:13;30.43;;;13.67;;
19032;SDS011;9649;51.042;13.804;2022-12-18T09:24:16;32.37;;;13.17;;
19032;SDS011;9649;51.042;13.804;2022-12-18T09:29:19;29.70;;;12.90;;
19032;SDS011;9649;51.042;13.804;2022-12-18T09:34:23;31.43;;;13.53;;
19032;SDS011;9649;51.042;13.804;2022-12-18T09:39:26;31.53;;;13.30;;
19032;SDS011;9649;51.042;13.804;2022-12-18T09:44:29;28.30;;;12.70;;
19032;SDS011;9649;51.042;13.804;2022-12-18T09:49:43;32.03;;;13.00;;
19032;SDS011;9649;51.042;13.804;2022-12-18T09:54:48;26.83;;;12.23;;
19032;SDS011;9649;51.042;13.804;2022-12-18T09:59:58;34.17;;;13.20;;
19032;SDS011;9649;51.042;13.804;2022-12-18T10:05:10;30.03;;;13.07;;
19032;SDS011;9649;51.042;13.804;2022-12-18T10:10:19;28.20;;;13.63;;
19032;SDS011;9649;51.042;13.804;2022-12-18T10:15:30;32.43;;;13.67;;
19032;SDS011;9649;51.042;13.804;2022-12-18T10:20:44;30.07;;;12.57;;
19032;SDS011;9649;51.042;13.804;2022-12-18T10:25:51;26.07;;;12.77;;
19032;SDS011;9649;51.042;13.804;2022-12-18T10:30:58;33.43;;;12.23;;
19032;SDS011;9649;51.042;13.804;2022-12-18T10:36:03;30.40;;;13.07;;
19032;SDS011;9649;51.042;13.804;2022-12-18T10:41:22;32.43;;;13.47;;
19032;SDS011;9649;51.042;13.804;2022-12-18T10:46:28;30.63;;;13.07;;
19032;SDS011;9649;51.042;13.804;2022-12-18T10:51:33;28.50;;;12.80;;
19032;SDS011;9649;51.042;13.804;2022-12-18T10:56:38;31.67;;;13.20;;
19032;SDS011;9649;51.042;13.804;2022-12-18T11:01:47;31.80;;;14.00;;
19032;SDS011;9649;51.042;13.804;2022-12-18T11:06:57;31.43;;;14.07;;
19032;SDS011;9649;51.042;13.804;2022-12-18T11:12:02;32.77;;;14.47;;
19032;SDS011;9649;51.042;13.804;2022-12-18T11:17:16;30.47;;;13.07;;
19032;SDS011;9649;51.042;13.804;2022-12-18T11:22:28;31.20;;;13.67;;
19032;SDS011;9649;51.042;13.804;2022-12-18T11:27:32;31.03;;;14.17;;
19032;SDS011;9649;51.042;13.804;2022-12-18T11:32:35;31.77;;;13.70;;
19032;SDS011;9649;51.042;13.804;2022-12-18T11:37:43;28.43;;;12.80;;
19032;SDS011;9649;51.042;13.804;2022-12-18T11:42:50;30.37;;;13.37;;
19032;SDS011;9649;51.042;13.804;2022-12-18T11:47:58;31.50;;;14.03;;
19032;SDS011;9649;51.042;13.804;2022-12-18T11:53:10;31.73;;;13.20;;
19032;SDS011;9649;51.042;13.804;2022-12-18T11:58:16;29.90;;;13.03;;
19032;SDS011;9649;51.042;13.804;2022-12-18T12:03:50;28.17;;;12.07;;
19032;SDS011;9649;51.042;13.804;2022-12-18T12:09:20;28.03;;;12.97;;
19032;SDS011;9649;51.042;13.804;2022-12-18T12:14:33;26.47;;;12.33;;
19032;SDS011;9649;51.042;13.804;2022-12-18T12:19:48;26.73;;;11.63;;
19032;SDS011;9649;51.042;13.804;2022-12-18T12:25:02;25.30;;;11.73;;
19032;SDS011;9649;51.042;13.804;2022-12-18T12:30:20;30.63;;;11.93;;
19032;SDS011;9649;51.042;13.804;2022-12-18T12:35:30;28.87;;;12.37;;
19032;SDS011;9649;51.042;13.804;2022-12-18T12:40:46;32.67;;;14.00;;
19032;SDS011;9649;51.042;13.804;2022-12-18T12:46:02;34.60;;;13.53;;
19032;SDS011;9649;51.042;13.804;2022-12-18T12:51:09;30.37;;;12.67;;
19032;SDS011;9649;51.042;13.804;2022-12-18T12:56:18;29.57;;;12.40;;
19032;SDS011;9649;51.042;13.804;2022-12-18T13:01:25;27.87;;;12.13;;
19032;SDS011;9649;51.042;13.804;2022-12-18T13:06:37;31.73;;;12.63;;
19032;SDS011;9649;51.042;13.804;2022-12-18T13:11:47;31.83;;;12.30;;
19032;SDS011;9649;51.042;13.804;2022-12-18T13:17:15;33.07;;;12.07;;
19032;SDS011;9649;51.042;13.804;2022-12-18T13:22:29;30.83;;;13.33;;
19032;SDS011;9649;51.042;13.804;2022-12-18T13:27:47;32.80;;;12.93;;
19032;SDS011;9649;51.042;13.804;2022-12-18T13:39:22;31.57;;;13.53;;
19032;SDS011;9649;51.042;13.804;2022-12-18T13:44:36;30.73;;;13.67;;
19032;SDS011;9649;51.042;13.804;2022-12-18T13:49:43;34.00;;;11.67;;
19032;SDS011;9649;51.042;13.804;2022-12-18T13:54:47;26.53;;;11.23;;
19032;SDS011;9649;51.042;13.804;2022-12-18T13:59:55;30.33;;;10.53;;
19032;SDS011;9649;51.042;13.804;2022-12-18T14:04:58;26.67;;;11.03;;
19032;SDS011;9649;51.042;13.804;2022-12-18T14:10:01;26.03;;;10.00;;
19032;SDS011;9649;51.042;13.804;2022-12-18T14:15:27;29.30;;;11.00;;
19032;SDS011;9649;51.042;13.804;2022-12-18T14:20:35;24.90;;;10.77;;
19032;SDS011;9649;51.042;13.804;2022-12-18T14:25:39;28.23;;;11.17;;
19032;SDS011;9649;51.042;13.804;2022-12-18T14:30:49;26.93;;;8.53;;
19032;SDS011;9649;51.042;13.804;2022-12-18T14:35:53;28.27;;;10.93;;
19032;SDS011;9649;51.042;13.804;2022-12-18T14:40:59;26.47;;;10.77;;
19032;SDS011;9649;51.042;13.804;2022-12-18T14:46:05;22.93;;;8.97;;
19032;SDS011;9649;51.042;13.804;2022-12-18T14:51:27;34.37;;;12.13;;
19032;SDS011;9649;51.042;13.804;2022-12-18T14:56:33;29.70;;;11.63;;
19032;SDS011;9649;51.042;13.804;2022-12-18T15:01:39;34.00;;;13.10;;
19032;SDS011;9649;51.042;13.804;2022-12-18T15:06:48;31.70;;;12.20;;
19032;SDS011;9649;51.042;13.804;2022-12-18T15:12:15;32.23;;;12.87;;
19032;SDS011;9649;51.042;13.804;2022-12-18T15:17:28;34.13;;;13.03;;
19032;SDS011;9649;51.042;13.804;2022-12-18T15:22:33;34.93;;;13.43;;
19032;SDS011;9649;51.042;13.804;2022-12-18T15:27:37;35.13;;;12.80;;
19032;SDS011;9649;51.042;13.804;2022-12-18T15:32:41;33.37;;;11.87;;
19032;SDS011;9649;51.042;13.804;2022-12-18T15:37:44;34.60;;;12.27;;
19032;SDS011;9649;51.042;13.804;2022-12-18T15:42:47;33.57;;;13.27;;
19032;SDS011;9649;51.042;13.804;2022-12-18T15:48:17;37.77;;;13.00;;
19032;SDS011;9649;51.042;13.804;2022-12-18T15:53:22;38.23;;;13.00;;
19032;SDS011;9649;51.042;13.804;2022-12-18T15:58:26;32.10;;;12.57;;
19032;SDS011;9649;51.042;13.804;2022-12-18T16:03:30;36.73;;;13.57;;
19032;SDS011;9649;51.042;13.804;2022-12-18T16:08:33;33.90;;;12.87;;
19032;SDS011;9649;51.042;13.804;2022-12-18T16:13:36;34.27;;;13.83;;
19032;SDS011;9649;51.042;13.804;2022-12-18T16:18:41;35.03;;;13.70;;
19032;SDS011;9649;51.042;13.804;2022-12-18T16:23:44;38.73;;;13.10;;
19032;SDS011;9649;51.042;13.804;2022-12-18T16:28:46;36.50;;;12.47;;
19032;SDS011;9649;51.042;13.804;2022-12-18T16:33:55;31.97;;;12.43;;
19032;SDS011;9649;51.042;13.804;2022-12-18T16:39:12;36.83;;;13.57;;
19032;SDS011;9649;51.042;13.804;2022-12-18T16:44:14;40.27;;;13.93;;
19032;SDS011;9649;51.042;13.804;2022-12-18T16:49:19;42.77;;;13.27;;
19032;SDS011;9649;51.042;13.804;2022-12-18T16:54:22;35.20;;;13.53;;
19032;SDS011;9649;51.042;13.804;2022-12-18T16:59:25;32.93;;;12.43;;
19032;SDS011;9649;51.042;13.804;2022-12-18T17:04:31;32.17;;;13.33;;
19032;SDS011;9649;51.042;13.804;2022-12-18T17:09:35;33.50;;;13.30;;
19032;SDS011;9649;51.042;13.804;2022-12-18T17:14:38;26.63;;;9.87;;
19032;SDS011;9649;51.042;13.804;2022-12-18T17:19:42;35.30;;;12.73;;
19032;SDS011;9649;51.042;13.804;2022-12-18T17:24:45;33.53;;;12.67;;
19032;SDS011;9649;51.042;13.804;2022-12-18T17:29:49;38.57;;;13.73;;
19032;SDS011;9649;51.042;13.804;2022-12-18T17:34:53;26.60;;;11.07;;
19032;SDS011;9649;51.042;13.804;2022-12-18T17:39:55;42.13;;;13.73;;
19032;SDS011;9649;51.042;13.804;2022-12-18T17:44:58;37.07;;;12.40;;
19032;SDS011;9649;51.042;13.804;2022-12-18T17:50:02;29.33;;;10.93;;
19032;SDS011;9649;51.042;13.804;2022-12-18T17:55:06;29.83;;;11.80;;
19032;SDS011;9649;51.042;13.804;2022-12-18T18:00:09;36.47;;;12.93;;
19032;SDS011;9649;51.042;13.804;2022-12-18T18:05:14;29.87;;;11.93;;
19032;SDS011;9649;51.042;13.804;2022-12-18T18:10:17;32.73;;;11.37;;
19032;SDS011;9649;51.042;13.804;2022-12-18T18:15:20;30.10;;;10.80;;
19032;SDS011;9649;51.042;13.804;2022-12-18T18:20:24;30.80;;;11.70;;
19032;SDS011;9649;51.042;13.804;2022-12-18T18:25:28;27.37;;;9.90;;
19032;SDS011;9649;51.042;13.804;2022-12-18T18:30:31;28.10;;;9.27;;
19032;SDS011;9649;51.042;13.804;2022-12-18T18:35:36;30.80;;;10.07;;
19032;SDS011;9649;51.042;13.804;2022-12-18T18:40:58;24.67;;;9.43;;
19032;SDS011;9649;51.042;13.804;2022-12-18T18:46:03;25.53;;;9.57;;
19032;SDS011;9649;51.042;13.804;2022-12-18T18:51:09;26.70;;;9.13;;
19032;SDS011;9649;51.042;13.804;2022-12-18T18:56:22;27.27;;;9.37;;
19032;SDS011;9649;51.042;13.804;2022-12-18T19:01:47;25.60;;;9.27;;
19032;SDS011;9649;51.042;13.804;2022-12-18T19:06:52;33.87;;;11.50;;
19032;SDS011;9649;51.042;13.804;2022-12-18T19:11:56;31.17;;;10.57;;
19032;SDS011;9649;51.042;13.804;2022-12-18T19:17:22;25.03;;;9.37;;
19032;SDS011;9649;51.042;13.804;2022-12-18T19:22:32;32.60;;;11.40;;
19032;SDS011;9649;51.042;13.804;2022-12-18T19:27:34;28.90;;;11.20;;
19032;SDS011;9649;51.042;13.804;2022-12-18T19:32:40;29.10;;;10.70;;
19032;SDS011;9649;51.042;13.804;2022-12-18T19:37:44;35.40;;;11.93;;
19032;SDS011;9649;51.042;13.804;2022-12-18T19:42:47;32.60;;;11.80;;
19032;SDS011;9649;51.042;13.804;2022-12-18T19:47:50;30.93;;;11.33;;
19032;SDS011;9649;51.042;13.804;2022-12-18T19:52:54;30.83;;;11.13;;
19032;SDS011;9649;51.042;13.804;2022-12-18T19:57:57;31.20;;;11.23;;
19032;SDS011;9649;51.042;13.804;2022-12-18T20:03:00;26.07;;;10.50;;
19032;SDS011;9649;51.042;13.804;2022-12-18T20:08:19;24.30;;;9.73;;
19032;SDS011;9649;51.042;13.804;2022-12-18T20:13:22;28.43;;;10.57;;
19032;SDS011;9649;51.042;13.804;2022-12-18T20:18:27;28.67;;;10.70;;
19032;SDS011;9649;51.042;13.804;2022-12-18T20:23:32;23.73;;;9.93;;
19032;SDS011;9649;51.042;13.804;2022-12-18T20:28:37;27.30;;;10.30;;
19032;SDS011;9649;51.042;13.804;2022-12-18T20:33:40;25.53;;;9.87;;
19032;SDS011;9649;51.042;13.804;2022-12-18T20:38:49;33.40;;;11.50;;
19032;SDS011;9649;51.042;13.804;2022-12-18T20:43:58;23.17;;;9.37;;
19032;SDS011;9649;51.042;13.804;2022-12-18T20:49:01;33.00;;;11.03;;
19032;SDS011;9649;51.042;13.804;2022-12-18T20:54:05;26.93;;;9.20;;
19032;SDS011;9649;51.042;13.804;2022-12-18T20:59:12;28.83;;;10.70;;
19032;SDS011;9649;51.042;13.804;2022-12-18T21:04:15;26.03;;;8.97;;
19032;SDS011;9649;51.042;13.804;2022-12-18T21:09:20;22.53;;;8.17;;
19032;SDS011;9649;51.042;13.804;2022-12-18T21:14:25;28.70;;;11.17;;
19032;SDS011;9649;51.042;13.804;2022-12-18T21:19:29;36.23;;;11.80;;
19032;SDS011;9649;51.042;13.804;2022-12-18T21:24:33;27.73;;;11.03;;
19032;SDS011;9649;51.042;13.804;2022-12-18T21:29:36;33.67;;;12.27;;
19032;SDS011;9649;51.042;13.804;2022-12-18T21:34:39;30.03;;;11.67;;
19032;SDS011;9649;51.042;13.804;2022-12-18T21:39:49;34.73;;;12.57;;
19032;SDS011;9649;51.042;13.804;2022-12-18T21:44:52;39.30;;;12.40;;
19032;SDS011;9649;51.042;13.804;2022-12-18T21:49:54;33.93;;;11.70;;
19032;SDS011;9649;51.042;13.804;2022-12-18T21:54:59;37.53;;;12.60;;
19032;SDS011;9649;51.042;13.804;2022-12-18T22:00:10;37.13;;;14.00;;
19032;SDS011;9649;51.042;13.804;2022-12-18T22:05:19;44.53;;;15.63;;
19032;SDS011;9649;51.042;13.804;2022-12-18T22:10:23;45.17;;;15.87;;
19032;SDS011;9649;51.042;13.804;2022-12-18T22:15:26;42.83;;;16.43;;
19032;SDS011;9649;51.042;13.804;2022-12-18T22:20:29;45.83;;;16.07;;
19032;SDS011;9649;51.042;13.804;2022-12-18T22:25:34;37.83;;;13.83;;
19032;SDS011;9649;51.042;13.804;2022-12-18T22:30:40;42.30;;;16.23;;
19032;SDS011;9649;51.042;13.804;2022-12-18T22:35:43;33.93;;;12.50;;
19032;SDS011;9649;51.042;13.804;2022-12-18T22:40:47;30.10;;;11.70;;
19032;SDS011;9649;51.042;13.804;2022-12-18T22:45:50;40.43;;;15.93;;
19032;SDS011;9649;51.042;13.804;2022-12-18T22:50:53;34.90;;;14.73;;
19032;SDS011;9649;51.042;13.804;2022-12-18T22:56:01;35.80;;;13.70;;
19032;SDS011;9649;51.042;13.804;2022-12-18T23:01:04;36.77;;;13.77;;
19032;SDS011;9649;51.042;13.804;2022-12-18T23:06:08;43.83;;;15.30;;
19032;SDS011;9649;51.042;13.804;2022-12-18T23:11:13;41.47;;;15.90;;
19032;SDS011;9649;51.042;13.804;2022-12-18T23:16:18;38.03;;;15.17;;
19032;SDS011;9649;51.042;13.804;2022-12-18T23:21:22;42.70;;;16.03;;
19032;SDS011;9649;51.042;13.804;2022-12-18T23:26:27;40.90;;;14.90;;
19032;SDS011;9649;51.042;13.804;2022-12-18T23:31:31;39.27;;;14.40;;
19032;SDS011;9649;51.042;13.804;2022-12-18T23:36:35;32.50;;;13.43;;
19032;SDS011;9649;51.042;13.804;2022-12-18T23:41:48;43.60;;;15.03;;
19032;SDS011;9649;51.042;13.804;2022-12-18T23:46:51;46.30;;;17.37;;
19032;SDS011;9649;51.042;13.804;2022-12-18T23:51:54;44.87;;;15.87;;
19032;SDS011;9649;51.042;13.804;2022-12-18T23:56:58;40.67;;;15.50;;
